createdAt,value
2023-03-29T00:00:12.938Z,4.78
2023-03-29T00:03:02.496Z,4.55
2023-03-29T00:05:33.877Z,4.32
2023-03-29T00:08:04.002Z,4.78
2023-03-29T00:10:33.542Z,4.57
2023-03-29T00:13:02.233Z,4.60
2023-03-29T00:15:29.838Z,4.93
2023-03-29T00:17:57.488Z,4.50
2023-03-29T00:20:25.505Z,4.78
2023-03-29T00:22:53.046Z,4.88
2023-03-29T00:25:21.348Z,5.07
2023-03-29T00:27:48.577Z,4.82
2023-03-29T00:30:16.498Z,4.63
2023-03-29T00:32:43.810Z,5.05
2023-03-29T00:35:11.396Z,4.85
2023-03-29T00:37:38.730Z,4.47
2023-03-29T00:40:11.013Z,4.43
2023-03-29T00:42:38.442Z,4.80
2023-03-29T00:45:12.091Z,5.15
2023-03-29T00:47:39.386Z,5.03
2023-03-29T00:50:33.083Z,4.97
2023-03-29T00:53:06.415Z,4.50
2023-03-29T00:56:10.026Z,5.45
2023-03-29T00:58:55.194Z,5.47
2023-03-29T01:04:04.537Z,5.07
2023-03-29T01:06:35.741Z,5.28
2023-03-29T01:09:08.744Z,5.20
2023-03-29T01:11:55.737Z,5.07
2023-03-29T01:14:34.441Z,5.03
2023-03-29T01:17:02.181Z,5.28
2023-03-29T01:19:35.056Z,5.55
2023-03-29T01:22:19.822Z,5.40
2023-03-29T01:24:59.857Z,5.78
2023-03-29T01:28:06.326Z,5.10
2023-03-29T01:30:40.528Z,5.43
2023-03-29T01:33:21.271Z,5.65
2023-03-29T01:35:57.589Z,5.88
2023-03-29T01:38:36.363Z,5.40
2023-03-29T01:41:04.584Z,6.05
2023-03-29T01:43:44.761Z,5.38
2023-03-29T01:46:20.718Z,6.13
2023-03-29T01:48:53.492Z,5.93
2023-03-29T01:51:36.116Z,5.45
2023-03-29T01:54:15.298Z,5.43
2023-03-29T01:56:45.649Z,6.43
2023-03-29T01:59:18.385Z,5.88
2023-03-29T02:01:51.693Z,5.75
2023-03-29T02:04:26.494Z,5.60
2023-03-29T02:06:55.898Z,6.25
2023-03-29T02:09:23.887Z,5.72
2023-03-29T02:11:53.139Z,6.07
2023-03-29T02:14:21.974Z,6.10
2023-03-29T02:16:49.957Z,5.63
2023-03-29T02:19:19.139Z,6.13
2023-03-29T02:22:03.916Z,6.13
2023-03-29T02:24:33.688Z,6.32
2023-03-29T02:27:01.413Z,6.22
2023-03-29T02:29:29.489Z,5.80
2023-03-29T02:32:05.089Z,5.85
2023-03-29T02:34:38.874Z,6.40
2023-03-29T02:37:11.693Z,6.70
2023-03-29T02:39:41.121Z,6.32
2023-03-29T02:42:10.066Z,6.43
2023-03-29T02:44:40.780Z,6.18
2023-03-29T02:47:19.508Z,6.20
2023-03-29T02:49:47.129Z,6.45
2023-03-29T02:52:19.337Z,6.28
2023-03-29T02:54:51.226Z,6.43
2023-03-29T02:57:22.025Z,6.07
2023-03-29T02:59:50.405Z,6.53
2023-03-29T03:02:17.974Z,6.28
2023-03-29T03:04:45.777Z,6.78
2023-03-29T03:07:13.684Z,6.70
2023-03-29T03:09:41.803Z,6.32
2023-03-29T03:12:09.304Z,6.47
2023-03-29T03:14:36.866Z,6.45
2023-03-29T03:17:04.830Z,6.65
2023-03-29T03:19:32.651Z,6.70
2023-03-29T03:21:59.940Z,6.22
2023-03-29T03:24:28.140Z,6.38
2023-03-29T03:26:55.428Z,6.65
2023-03-29T03:29:24.928Z,7.00
2023-03-29T03:31:53.927Z,6.70
2023-03-29T03:34:22.740Z,7.07
2023-03-29T03:36:50.553Z,6.72
2023-03-29T03:39:18.168Z,6.25
2023-03-29T03:41:45.450Z,6.70
2023-03-29T03:44:13.244Z,6.63
2023-03-29T03:46:41.520Z,6.07
2023-03-29T03:49:09.052Z,6.80
2023-03-29T03:51:36.820Z,6.30
2023-03-29T03:54:04.504Z,7.10
2023-03-29T03:56:31.800Z,7.68
2023-03-29T03:58:59.405Z,7.00
2023-03-29T04:01:27.380Z,6.88
2023-03-29T04:03:55.220Z,6.78
2023-03-29T04:06:22.621Z,7.40
2023-03-29T04:08:50.263Z,6.93
2023-03-29T04:11:17.539Z,7.43
2023-03-29T04:13:46.562Z,7.53
2023-03-29T04:16:13.876Z,7.25
2023-03-29T04:18:41.729Z,7.07
2023-03-29T04:21:09.134Z,7.63
2023-03-29T04:23:36.699Z,7.03
2023-03-29T04:26:04.266Z,7.45
2023-03-29T04:28:32.160Z,7.63
2023-03-29T04:31:00.196Z,7.28
2023-03-29T04:33:29.345Z,7.32
2023-03-29T04:35:57.026Z,6.70
2023-03-29T04:38:26.629Z,7.15
2023-03-29T04:40:54.886Z,7.10
2023-03-29T04:43:23.605Z,7.72
2023-03-29T04:45:51.003Z,7.47
2023-03-29T04:48:18.638Z,7.80
2023-03-29T04:50:46.737Z,7.55
2023-03-29T04:53:14.271Z,8.05
2023-03-29T04:55:41.605Z,7.82
2023-03-29T04:58:10.012Z,8.85
2023-03-29T05:00:37.939Z,8.27
2023-03-29T05:03:06.888Z,8.15
2023-03-29T05:05:35.483Z,8.10
2023-03-29T05:08:03.391Z,9.20
2023-03-29T05:10:30.928Z,8.63
2023-03-29T05:12:58.645Z,8.13
2023-03-29T05:15:26.138Z,9.38
2023-03-29T05:17:54.369Z,9.45
2023-03-29T05:20:22.141Z,8.88
2023-03-29T05:22:50.734Z,9.68
2023-03-29T05:25:18.766Z,9.50
2023-03-29T05:27:46.554Z,9.32
2023-03-29T05:30:15.262Z,9.68
2023-03-29T05:32:42.861Z,10.10
2023-03-29T05:35:11.680Z,9.85
2023-03-29T05:37:40.945Z,9.30
2023-03-29T05:40:10.052Z,9.60
2023-03-29T05:42:38.563Z,10.40
2023-03-29T05:45:06.540Z,10.65
2023-03-29T05:47:34.098Z,10.77
2023-03-29T05:50:02.562Z,10.70
2023-03-29T05:52:30.223Z,10.50
2023-03-29T05:54:58.666Z,10.80
2023-03-29T05:57:27.904Z,10.70
2023-03-29T05:59:56.155Z,11.30
2023-03-29T06:02:25.679Z,11.25
2023-03-29T06:04:53.999Z,11.70
2023-03-29T06:07:23.341Z,11.60
2023-03-29T06:09:50.773Z,11.40
2023-03-29T06:12:20.144Z,11.45
2023-03-29T06:14:48.205Z,11.18
2023-03-29T06:17:15.814Z,11.25
2023-03-29T06:19:44.362Z,11.55
2023-03-29T06:22:14.706Z,12.05
2023-03-29T06:24:42.263Z,11.60
2023-03-29T06:27:09.766Z,12.23
2023-03-29T06:29:37.040Z,12.40
2023-03-29T06:32:05.361Z,12.00
2023-03-29T06:34:36.064Z,11.88
2023-03-29T06:37:05.892Z,11.85
2023-03-29T06:39:33.175Z,11.98
2023-03-29T06:42:05.205Z,11.23
2023-03-29T06:44:37.623Z,11.55
2023-03-29T06:47:06.226Z,11.18
2023-03-29T06:49:34.412Z,12.02
2023-03-29T06:52:01.919Z,12.38
2023-03-29T06:54:29.214Z,12.27
2023-03-29T06:56:57.822Z,11.55
2023-03-29T06:59:25.822Z,11.43
2023-03-29T07:01:55.128Z,11.07
2023-03-29T07:04:24.574Z,11.38
2023-03-29T07:07:01.431Z,11.95
2023-03-29T07:09:30.478Z,11.88
2023-03-29T07:11:59.056Z,11.27
2023-03-29T07:14:28.869Z,11.57
2023-03-29T07:16:58.439Z,12.05
2023-03-29T07:19:27.342Z,11.38
2023-03-29T07:21:55.121Z,11.18
2023-03-29T07:24:22.663Z,11.23
2023-03-29T07:27:03.291Z,11.00
2023-03-29T07:29:32.052Z,10.95
2023-03-29T07:32:00.187Z,11.30
2023-03-29T07:34:29.967Z,10.88
2023-03-29T07:36:57.753Z,11.98
2023-03-29T07:39:26.187Z,10.70
2023-03-29T07:41:57.527Z,11.48
2023-03-29T07:44:24.841Z,10.50
2023-03-29T07:46:52.433Z,10.50
2023-03-29T07:49:22.024Z,10.18
2023-03-29T07:51:49.688Z,10.38
2023-03-29T07:54:18.891Z,10.20
2023-03-29T07:56:47.626Z,10.70
2023-03-29T07:59:15.372Z,10.60
2023-03-29T08:01:42.967Z,11.38
2023-03-29T08:04:11.060Z,10.48
2023-03-29T08:06:39.364Z,10.13
2023-03-29T08:09:06.834Z,10.93
2023-03-29T08:11:34.478Z,10.43
2023-03-29T08:14:01.791Z,9.85
2023-03-29T08:16:29.393Z,10.45
2023-03-29T08:18:56.725Z,10.70
2023-03-29T08:21:24.241Z,10.73
2023-03-29T08:23:51.971Z,9.65
2023-03-29T08:26:19.551Z,10.60
2023-03-29T08:28:46.810Z,10.18
2023-03-29T08:31:15.342Z,10.00
2023-03-29T08:33:44.195Z,9.60
2023-03-29T08:36:13.050Z,10.18
2023-03-29T08:38:40.702Z,10.10
2023-03-29T08:41:25.988Z,9.82
2023-03-29T08:44:03.252Z,9.60
2023-03-29T08:46:49.918Z,10.63
2023-03-29T08:49:19.904Z,9.73
2023-03-29T08:51:56.796Z,9.65
2023-03-29T08:54:27.360Z,9.30
2023-03-29T08:57:04.405Z,10.15
2023-03-29T08:59:33.173Z,9.13
2023-03-29T09:02:04.249Z,9.85
2023-03-29T09:04:35.727Z,8.88
2023-03-29T09:07:08.331Z,9.35
2023-03-29T09:09:35.992Z,8.70
2023-03-29T09:12:13.676Z,8.90
2023-03-29T09:15:04.577Z,8.90
2023-03-29T09:17:42.591Z,9.13
2023-03-29T09:20:41.178Z,9.05
2023-03-29T09:23:11.933Z,8.95
2023-03-29T09:25:56.641Z,8.52
2023-03-29T09:28:38.162Z,9.05
2023-03-29T09:31:26.059Z,8.55
2023-03-29T09:33:58.931Z,9.80
2023-03-29T09:36:52.565Z,8.60
2023-03-29T09:39:22.201Z,8.50
2023-03-29T09:41:52.189Z,8.80
2023-03-29T09:44:31.193Z,8.40
2023-03-29T09:47:11.589Z,9.23
2023-03-29T09:49:44.150Z,8.43
2023-03-29T09:52:14.986Z,8.60
2023-03-29T09:54:43.552Z,8.63
2023-03-29T09:57:13.787Z,8.30
2023-03-29T09:59:41.573Z,8.60
2023-03-29T10:02:12.782Z,8.15
2023-03-29T10:04:42.536Z,8.63
2023-03-29T10:07:20.744Z,7.30
2023-03-29T10:09:51.025Z,8.25
2023-03-29T10:12:19.934Z,8.02
2023-03-29T10:14:54.185Z,7.82
2023-03-29T10:17:24.568Z,7.20
2023-03-29T10:20:04.157Z,8.23
2023-03-29T10:22:36.349Z,8.13
2023-03-29T10:25:04.994Z,7.78
2023-03-29T10:27:35.713Z,7.88
2023-03-29T10:30:12.901Z,7.97
2023-03-29T10:32:41.167Z,7.53
2023-03-29T10:35:12.955Z,8.23
2023-03-29T10:37:44.854Z,7.13
2023-03-29T10:40:24.373Z,7.28
2023-03-29T10:42:54.813Z,7.63
2023-03-29T10:45:28.978Z,7.63
2023-03-29T10:47:57.918Z,7.10
2023-03-29T10:50:34.255Z,7.47
2023-03-29T10:53:03.160Z,7.55
2023-03-29T10:55:48.496Z,7.63
2023-03-29T10:58:15.709Z,7.28
2023-03-29T11:00:54.553Z,6.95
2023-03-29T11:03:49.751Z,7.28
2023-03-29T11:06:27.671Z,6.35
2023-03-29T11:08:54.981Z,7.28
2023-03-29T11:11:44.406Z,7.38
2023-03-29T11:14:41.170Z,6.82
2023-03-29T11:17:18.093Z,7.53
2023-03-29T11:20:05.754Z,7.15
2023-03-29T11:23:17.127Z,7.03
2023-03-29T11:26:11.816Z,6.95
2023-03-29T11:28:56.592Z,7.03
2023-03-29T11:31:28.672Z,7.00
2023-03-29T11:34:22.364Z,7.18
2023-03-29T11:37:19.269Z,6.65
2023-03-29T11:40:11.269Z,6.88
2023-03-29T11:42:43.844Z,6.18
2023-03-29T11:45:32.431Z,5.65
2023-03-29T11:48:02.532Z,6.50
2023-03-29T11:50:43.746Z,6.15
2023-03-29T11:53:25.459Z,6.75
2023-03-29T11:55:55.367Z,6.38
2023-03-29T11:58:39.077Z,5.80
2023-03-29T12:01:28.137Z,6.68
2023-03-29T12:04:22.412Z,5.80
2023-03-29T12:07:01.741Z,5.93
2023-03-29T12:09:39.517Z,5.68
2023-03-29T12:12:23.335Z,5.88
2023-03-29T12:15:15.431Z,5.90
2023-03-29T12:17:51.975Z,5.65
2023-03-29T12:20:31.305Z,5.85
2023-03-29T12:22:59.266Z,6.13
2023-03-29T12:26:03.908Z,5.72
2023-03-29T12:28:53.120Z,5.80
2023-03-29T12:31:32.622Z,5.97
2023-03-29T12:34:57.537Z,6.28
2023-03-29T12:37:35.949Z,5.40
2023-03-29T12:40:10.032Z,5.32
2023-03-29T12:42:54.314Z,4.93
2023-03-29T12:45:32.096Z,5.90
2023-03-29T12:48:00.232Z,5.40
2023-03-29T12:50:37.340Z,5.65
2023-03-29T12:53:18.137Z,5.40
2023-03-29T12:55:54.667Z,5.57
2023-03-29T12:58:36.583Z,5.60
2023-03-29T13:01:24.394Z,5.13
2023-03-29T13:04:21.620Z,5.32
2023-03-29T13:06:50.092Z,5.10
2023-03-29T13:09:35.256Z,4.85
2023-03-29T13:12:19.285Z,5.10
2023-03-29T13:14:52.552Z,4.72
2023-03-29T13:18:05.218Z,5.13
2023-03-29T13:20:56.012Z,5.45
2023-03-29T13:23:56.926Z,5.82
2023-03-29T13:26:51.342Z,6.18
2023-03-29T13:29:38.064Z,6.05
2023-03-29T13:32:27.161Z,5.55
2023-03-29T13:35:11.853Z,5.88
2023-03-29T13:37:41.840Z,5.90
2023-03-29T13:40:32.914Z,5.07
2023-03-29T13:43:19.704Z,5.78
2023-03-29T13:45:59.266Z,5.13
2023-03-29T13:48:29.646Z,5.00
2023-03-29T13:51:08.019Z,5.85
2023-03-29T13:53:40.994Z,5.40
2023-03-29T13:56:15.533Z,4.97
2023-03-29T13:58:51.267Z,5.55
2023-03-29T14:01:43.460Z,5.50
2023-03-29T14:04:20.877Z,5.05
2023-03-29T14:06:53.102Z,5.20
2023-03-29T14:09:26.001Z,4.90
2023-03-29T14:11:54.059Z,5.40
2023-03-29T14:14:24.632Z,5.50
2023-03-29T14:16:55.598Z,5.07
2023-03-29T14:19:36.863Z,5.30
2023-03-29T14:22:13.114Z,4.90
2023-03-29T14:24:48.034Z,5.53
2023-03-29T14:27:16.630Z,5.05
2023-03-29T14:29:49.462Z,5.38
2023-03-29T14:32:27.418Z,4.63
2023-03-29T14:34:54.807Z,4.72
2023-03-29T14:37:26.162Z,4.82
2023-03-29T14:39:54.604Z,4.82
2023-03-29T14:42:27.164Z,4.75
2023-03-29T14:45:15.072Z,4.50
2023-03-29T14:47:44.541Z,4.55
2023-03-29T14:50:22.765Z,4.88
2023-03-29T14:52:52.737Z,4.50
2023-03-29T14:55:23.791Z,4.57
2023-03-29T14:57:54.795Z,4.65
2023-03-29T15:00:42.489Z,4.72
2023-03-29T15:03:15.184Z,4.72
2023-03-29T15:05:49.938Z,4.28
2023-03-29T15:08:29.709Z,4.50
2023-03-29T15:10:57.500Z,4.10
2023-03-29T15:13:26.049Z,4.45
2023-03-29T15:16:00.345Z,4.38
2023-03-29T15:18:39.928Z,4.53
2023-03-29T15:21:08.689Z,3.95
2023-03-29T15:23:39.084Z,4.15
2023-03-29T15:26:13.416Z,3.70
2023-03-29T15:28:55.424Z,4.25
2023-03-29T15:31:33.091Z,4.00
2023-03-29T15:34:29.275Z,3.88
2023-03-29T15:36:59.730Z,4.28
2023-03-29T15:39:29.241Z,3.97
2023-03-29T15:41:58.118Z,4.00
2023-03-29T15:44:32.642Z,3.78
2023-03-29T15:47:00.355Z,3.95
2023-03-29T15:49:27.978Z,4.53
2023-03-29T15:51:56.646Z,3.53
2023-03-29T15:54:24.786Z,4.10
2023-03-29T15:56:56.523Z,4.03
2023-03-29T15:59:24.265Z,4.18
2023-03-29T16:01:51.705Z,4.35
2023-03-29T16:04:21.659Z,3.78
2023-03-29T16:06:52.786Z,3.80
2023-03-29T16:09:21.808Z,4.22
2023-03-29T16:11:50.064Z,4.07
2023-03-29T16:14:27.026Z,3.55
2023-03-29T16:16:55.625Z,3.42
2023-03-29T16:19:24.359Z,4.15
2023-03-29T16:21:54.019Z,3.85
2023-03-29T16:24:24.786Z,3.75
2023-03-29T16:26:56.502Z,4.00
2023-03-29T16:29:25.354Z,3.90
2023-03-29T16:31:53.435Z,3.95
2023-03-29T16:34:22.697Z,3.70
2023-03-29T16:36:50.628Z,3.75
2023-03-29T16:39:18.657Z,3.55
2023-03-29T16:41:49.060Z,3.70
2023-03-29T16:44:20.743Z,3.85
2023-03-29T16:46:50.443Z,3.90
2023-03-29T16:49:18.181Z,3.53
2023-03-29T16:51:47.135Z,3.47
2023-03-29T16:54:15.612Z,3.53
2023-03-29T16:56:43.102Z,3.42
2023-03-29T16:59:11.993Z,3.55
2023-03-29T17:01:40.666Z,3.63
2023-03-29T17:04:09.005Z,3.78
2023-03-29T17:06:36.525Z,3.70
2023-03-29T17:09:05.184Z,3.45
2023-03-29T17:11:32.814Z,3.58
2023-03-29T17:14:00.467Z,3.80
2023-03-29T17:16:29.133Z,3.75
2023-03-29T17:19:00.413Z,3.65
2023-03-29T17:21:29.249Z,3.70
2023-03-29T17:23:57.003Z,4.07
2023-03-29T17:26:24.394Z,3.58
2023-03-29T17:28:52.011Z,4.05
2023-03-29T17:31:19.807Z,4.00
2023-03-29T17:33:50.467Z,3.97
2023-03-29T17:36:19.169Z,4.30
2023-03-29T17:38:48.910Z,4.10
2023-03-29T17:41:17.188Z,4.18
2023-03-29T17:43:45.237Z,4.10
2023-03-29T17:46:12.735Z,4.18
2023-03-29T17:48:40.915Z,4.10
2023-03-29T17:51:08.485Z,3.92
2023-03-29T17:53:37.647Z,4.20
2023-03-29T17:56:07.256Z,4.25
2023-03-29T17:58:35.345Z,3.88
2023-03-29T18:01:11.505Z,4.20
2023-03-29T18:03:40.658Z,4.22
2023-03-29T18:06:09.355Z,4.20
2023-03-29T18:08:41.256Z,4.20
2023-03-29T18:11:16.211Z,3.95
2023-03-29T18:13:45.110Z,3.60
2023-03-29T18:16:14.667Z,4.47
2023-03-29T18:18:43.910Z,4.22
2023-03-29T18:21:11.962Z,4.30
2023-03-29T18:23:45.542Z,4.30
2023-03-29T18:26:14.946Z,4.13
2023-03-29T18:28:47.016Z,4.90
2023-03-29T18:31:15.608Z,4.43
2023-03-29T18:33:45.391Z,4.53
2023-03-29T18:36:13.818Z,4.47
2023-03-29T18:38:42.984Z,4.28
2023-03-29T18:41:12.460Z,4.55
2023-03-29T18:43:41.092Z,4.65
2023-03-29T18:46:08.741Z,4.88
2023-03-29T18:48:38.964Z,4.80
2023-03-29T18:51:08.744Z,4.60
2023-03-29T18:53:38.683Z,4.70
2023-03-29T18:56:06.658Z,4.70
2023-03-29T18:58:34.945Z,4.72
2023-03-29T19:01:04.220Z,4.03
2023-03-29T19:03:34.315Z,4.43
2023-03-29T19:06:03.851Z,5.03
2023-03-29T19:08:32.879Z,4.45
2023-03-29T19:11:01.822Z,4.45
2023-03-29T19:13:29.415Z,4.40
2023-03-29T19:15:57.199Z,4.57
2023-03-29T19:18:26.014Z,4.63
2023-03-29T19:20:56.316Z,4.82
2023-03-29T19:23:27.070Z,4.70
2023-03-29T19:25:59.961Z,5.18
2023-03-29T19:28:27.978Z,4.85
2023-03-29T19:30:58.098Z,5.00
2023-03-29T19:33:25.681Z,4.80
2023-03-29T19:35:53.034Z,5.10
2023-03-29T19:38:21.085Z,5.05
2023-03-29T19:40:50.345Z,4.90
2023-03-29T19:43:18.294Z,5.47
2023-03-29T19:45:47.545Z,5.13
2023-03-29T19:48:22.556Z,4.97
2023-03-29T19:50:51.444Z,5.72
2023-03-29T19:53:19.583Z,5.32
2023-03-29T19:55:46.830Z,5.35
2023-03-29T19:58:14.412Z,5.25
2023-03-29T20:00:42.365Z,5.32
2023-03-29T20:03:10.457Z,5.47
2023-03-29T20:05:38.879Z,5.35
2023-03-29T20:08:08.216Z,5.18
2023-03-29T20:10:36.345Z,5.43
2023-03-29T20:13:06.488Z,5.70
2023-03-29T20:15:34.730Z,5.43
2023-03-29T20:18:02.325Z,5.28
2023-03-29T20:20:30.006Z,5.70
2023-03-29T20:22:58.307Z,5.18
2023-03-29T20:25:25.937Z,5.43
2023-03-29T20:27:53.968Z,5.60
2023-03-29T20:30:21.265Z,5.13
2023-03-29T20:32:48.860Z,5.40
2023-03-29T20:35:16.470Z,5.72
2023-03-29T20:37:44.369Z,5.05
2023-03-29T20:40:12.910Z,5.60
2023-03-29T20:42:40.524Z,5.75
2023-03-29T20:45:18.248Z,6.60
2023-03-29T20:47:55.953Z,5.82
2023-03-29T20:50:30.147Z,6.13
2023-03-29T20:53:02.083Z,5.97
2023-03-29T20:55:30.410Z,6.32
2023-03-29T20:57:58.268Z,5.55
2023-03-29T21:00:28.801Z,5.95
2023-03-29T21:03:00.212Z,6.85
2023-03-29T21:05:28.930Z,6.03
2023-03-29T21:07:56.909Z,6.13
2023-03-29T21:10:26.659Z,6.35
2023-03-29T21:12:54.402Z,6.45
2023-03-29T21:15:21.919Z,6.10
2023-03-29T21:17:49.458Z,6.05
2023-03-29T21:20:16.873Z,5.97
2023-03-29T21:22:44.542Z,5.97
2023-03-29T21:25:15.493Z,5.97
2023-03-29T21:27:43.381Z,5.47
2023-03-29T21:30:11.224Z,5.97
2023-03-29T21:32:38.791Z,6.45
2023-03-29T21:35:06.897Z,6.40
2023-03-29T21:37:34.684Z,5.95
2023-03-29T21:40:05.651Z,6.80
2023-03-29T21:42:34.102Z,6.60
2023-03-29T21:45:01.560Z,5.97
2023-03-29T21:47:29.168Z,6.57
2023-03-29T21:49:56.560Z,6.35
2023-03-29T21:52:24.076Z,6.90
2023-03-29T21:54:51.532Z,6.25
2023-03-29T21:57:19.199Z,6.30
2023-03-29T21:59:46.505Z,6.18
2023-03-29T22:02:14.277Z,7.10
2023-03-29T22:04:41.819Z,6.82
2023-03-29T22:07:10.620Z,7.13
2023-03-29T22:09:41.218Z,6.22
2023-03-29T22:12:10.035Z,7.07
2023-03-29T22:14:37.433Z,6.85
2023-03-29T22:17:06.167Z,6.50
2023-03-29T22:19:38.832Z,6.88
2023-03-29T22:22:13.584Z,6.43
2023-03-29T22:24:42.061Z,6.85
2023-03-29T22:27:11.636Z,6.40
2023-03-29T22:29:39.046Z,6.88
2023-03-29T22:32:07.399Z,7.18
2023-03-29T22:34:34.936Z,6.28
2023-03-29T22:37:02.490Z,7.10
2023-03-29T22:39:30.864Z,6.55
2023-03-29T22:41:58.348Z,7.47
2023-03-29T22:44:26.988Z,6.53
2023-03-29T22:46:55.894Z,7.22
2023-03-29T22:49:23.193Z,6.93
2023-03-29T22:51:51.483Z,7.15
2023-03-29T22:54:18.734Z,7.25
2023-03-29T22:56:46.713Z,7.18
2023-03-29T22:59:14.203Z,7.22
2023-03-29T23:01:41.822Z,6.85
2023-03-29T23:04:09.294Z,7.25
2023-03-29T23:06:36.989Z,6.72
2023-03-29T23:09:05.445Z,7.05
2023-03-29T23:11:33.383Z,7.07
2023-03-29T23:14:03.941Z,6.90
2023-03-29T23:16:32.002Z,6.60
2023-03-29T23:18:59.435Z,7.13
2023-03-29T23:21:27.917Z,7.10
2023-03-29T23:23:55.281Z,6.80
2023-03-29T23:26:23.381Z,7.20
2023-03-29T23:28:51.517Z,6.80
2023-03-29T23:31:19.650Z,7.70
2023-03-29T23:33:46.924Z,6.95
2023-03-29T23:36:17.074Z,7.00
2023-03-29T23:38:46.315Z,7.20
2023-03-29T23:41:16.686Z,7.40
2023-03-29T23:43:46.950Z,6.75
2023-03-29T23:46:16.814Z,7.25
2023-03-29T23:48:46.150Z,7.10
2023-03-29T23:51:13.871Z,6.85
2023-03-29T23:53:41.495Z,7.30
2023-03-29T23:56:10.233Z,7.50
2023-03-29T23:58:37.940Z,6.75
